sensor_id;sensor_type;location;lat;lon;timestamp;temperature;humidity
22966;DHT22;11649;48.090;9.754;2022-09-27T00:01:05;10.40;99.90
22966;DHT22;11649;48.090;9.754;2022-09-27T00:03:32;10.30;99.90
22966;DHT22;11649;48.090;9.754;2022-09-27T00:06:23;10.30;99.90
22966;DHT22;11649;48.090;9.754;2022-09-27T00:08:50;10.30;99.90
22966;DHT22;11649;48.090;9.754;2022-09-27T00:11:26;10.30;99.90
22966;DHT22;11649;48.090;9.754;2022-09-27T00:13:55;10.30;99.90
22966;DHT22;11649;48.090;9.754;2022-09-27T00:16:23;10.00;99.90
22966;DHT22;11649;48.090;9.754;2022-09-27T00:18:50;10.00;99.90
22966;DHT22;11649;48.090;9.754;2022-09-27T00:21:17;9.90;99.90
22966;DHT22;11649;48.090;9.754;2022-09-27T00:23:44;10.90;99.90
22966;DHT22;11649;48.090;9.754;2022-09-27T00:26:14;9.80;99.90
22966;DHT22;11649;48.090;9.754;2022-09-27T00:28:41;11.60;99.90
22966;DHT22;11649;48.090;9.754;2022-09-27T00:33:52;9.50;99.90
22966;DHT22;11649;48.090;9.754;2022-09-27T00:36:20;9.30;99.90
22966;DHT22;11649;48.090;9.754;2022-09-27T00:38:48;9.50;99.90
22966;DHT22;11649;48.090;9.754;2022-09-27T00:41:19;9.20;99.90
22966;DHT22;11649;48.090;9.754;2022-09-27T00:43:49;9.30;99.90
22966;DHT22;11649;48.090;9.754;2022-09-27T00:51:41;9.20;99.90
22966;DHT22;11649;48.090;9.754;2022-09-27T00:54:11;9.30;99.90
22966;DHT22;11649;48.090;9.754;2022-09-27T00:56:39;9.00;99.90
22966;DHT22;11649;48.090;9.754;2022-09-27T01:01:56;9.10;99.90
22966;DHT22;11649;48.090;9.754;2022-09-27T01:04:26;9.20;99.90
22966;DHT22;11649;48.090;9.754;2022-09-27T01:06:55;9.20;99.90
22966;DHT22;11649;48.090;9.754;2022-09-27T01:09:22;9.10;99.90
22966;DHT22;11649;48.090;9.754;2022-09-27T01:22:43;9.20;99.90
22966;DHT22;11649;48.090;9.754;2022-09-27T01:25:37;9.20;99.90
22966;DHT22;11649;48.090;9.754;2022-09-27T01:31:01;9.20;99.90
22966;DHT22;11649;48.090;9.754;2022-09-27T01:39:11;9.20;99.90
22966;DHT22;11649;48.090;9.754;2022-09-27T01:47:15;9.20;99.90
22966;DHT22;11649;48.090;9.754;2022-09-27T01:50:10;9.10;99.90
22966;DHT22;11649;48.090;9.754;2022-09-27T01:52:59;9.20;99.90
22966;DHT22;11649;48.090;9.754;2022-09-27T01:55:31;9.20;99.90
22966;DHT22;11649;48.090;9.754;2022-09-27T01:58:13;9.10;99.90
22966;DHT22;11649;48.090;9.754;2022-09-27T02:00:43;9.10;99.90
22966;DHT22;11649;48.090;9.754;2022-09-27T02:03:15;9.20;99.90
22966;DHT22;11649;48.090;9.754;2022-09-27T02:05:54;9.20;99.90
22966;DHT22;11649;48.090;9.754;2022-09-27T02:08:42;9.20;99.90
22966;DHT22;11649;48.090;9.754;2022-09-27T02:11:13;9.30;99.90
22966;DHT22;11649;48.090;9.754;2022-09-27T02:13:58;9.10;99.90
22966;DHT22;11649;48.090;9.754;2022-09-27T02:16:49;9.30;99.90
22966;DHT22;11649;48.090;9.754;2022-09-27T02:22:29;9.20;99.90
22966;DHT22;11649;48.090;9.754;2022-09-27T02:25:10;9.30;99.90
22966;DHT22;11649;48.090;9.754;2022-09-27T02:30:36;9.20;99.90
22966;DHT22;11649;48.090;9.754;2022-09-27T02:33:02;9.20;99.90
22966;DHT22;11649;48.090;9.754;2022-09-27T02:35:34;9.20;99.90
22966;DHT22;11649;48.090;9.754;2022-09-27T02:38:02;9.30;99.90
22966;DHT22;11649;48.090;9.754;2022-09-27T02:40:35;9.30;99.90
22966;DHT22;11649;48.090;9.754;2022-09-27T02:43:03;9.40;99.90
22966;DHT22;11649;48.090;9.754;2022-09-27T02:48:56;9.30;99.90
22966;DHT22;11649;48.090;9.754;2022-09-27T02:57:45;9.40;99.90
22966;DHT22;11649;48.090;9.754;2022-09-27T03:00:21;9.40;99.90
22966;DHT22;11649;48.090;9.754;2022-09-27T03:03:13;9.60;99.90
22966;DHT22;11649;48.090;9.754;2022-09-27T03:05:51;9.80;99.90
22966;DHT22;11649;48.090;9.754;2022-09-27T03:08:19;9.50;99.90
22966;DHT22;11649;48.090;9.754;2022-09-27T03:10:45;9.30;99.90
22966;DHT22;11649;48.090;9.754;2022-09-27T03:13:13;9.40;99.90
22966;DHT22;11649;48.090;9.754;2022-09-27T03:15:39;9.60;99.90
22966;DHT22;11649;48.090;9.754;2022-09-27T03:18:06;9.40;99.90
22966;DHT22;11649;48.090;9.754;2022-09-27T03:20:33;9.40;99.90
22966;DHT22;11649;48.090;9.754;2022-09-27T03:23:02;11.20;99.90
22966;DHT22;11649;48.090;9.754;2022-09-27T03:25:29;8.50;99.90
22966;DHT22;11649;48.090;9.754;2022-09-27T03:27:56;10.70;99.90
22966;DHT22;11649;48.090;9.754;2022-09-27T03:30:23;9.00;99.90
22966;DHT22;11649;48.090;9.754;2022-09-27T03:32:57;9.20;99.90
22966;DHT22;11649;48.090;9.754;2022-09-27T03:35:28;10.70;99.90
22966;DHT22;11649;48.090;9.754;2022-09-27T03:37:55;10.00;99.90
22966;DHT22;11649;48.090;9.754;2022-09-27T03:40:25;10.60;99.90
22966;DHT22;11649;48.090;9.754;2022-09-27T03:42:55;10.30;99.90
22966;DHT22;11649;48.090;9.754;2022-09-27T03:45:23;10.80;99.90
22966;DHT22;11649;48.090;9.754;2022-09-27T03:47:50;10.20;99.90
22966;DHT22;11649;48.090;9.754;2022-09-27T03:50:17;9.00;99.90
22966;DHT22;11649;48.090;9.754;2022-09-27T03:52:44;9.90;99.90
22966;DHT22;11649;48.090;9.754;2022-09-27T03:55:11;10.60;99.90
22966;DHT22;11649;48.090;9.754;2022-09-27T03:57:42;10.40;99.90
22966;DHT22;11649;48.090;9.754;2022-09-27T04:00:10;11.10;99.90
22966;DHT22;11649;48.090;9.754;2022-09-27T04:02:46;9.40;99.90
22966;DHT22;11649;48.090;9.754;2022-09-27T04:05:13;10.00;99.90
22966;DHT22;11649;48.090;9.754;2022-09-27T04:07:47;9.40;99.90
22966;DHT22;11649;48.090;9.754;2022-09-27T04:10:15;9.50;99.90
22966;DHT22;11649;48.090;9.754;2022-09-27T04:12:47;9.30;99.90
22966;DHT22;11649;48.090;9.754;2022-09-27T04:15:14;9.80;99.90
22966;DHT22;11649;48.090;9.754;2022-09-27T04:17:41;10.30;99.90
22966;DHT22;11649;48.090;9.754;2022-09-27T04:20:09;8.70;99.90
22966;DHT22;11649;48.090;9.754;2022-09-27T04:22:40;9.20;99.90
22966;DHT22;11649;48.090;9.754;2022-09-27T04:25:08;9.20;99.90
22966;DHT22;11649;48.090;9.754;2022-09-27T04:27:35;9.20;99.90
22966;DHT22;11649;48.090;9.754;2022-09-27T04:30:02;9.00;99.90
22966;DHT22;11649;48.090;9.754;2022-09-27T04:32:29;9.10;99.90
22966;DHT22;11649;48.090;9.754;2022-09-27T04:34:56;8.90;99.90
22966;DHT22;11649;48.090;9.754;2022-09-27T04:37:41;8.90;99.90
22966;DHT22;11649;48.090;9.754;2022-09-27T04:40:10;9.20;99.90
22966;DHT22;11649;48.090;9.754;2022-09-27T04:42:37;9.20;99.90
22966;DHT22;11649;48.090;9.754;2022-09-27T04:45:04;9.10;99.90
22966;DHT22;11649;48.090;9.754;2022-09-27T04:47:31;9.10;99.90
22966;DHT22;11649;48.090;9.754;2022-09-27T04:49:59;9.10;99.90
22966;DHT22;11649;48.090;9.754;2022-09-27T04:52:25;9.00;99.90
22966;DHT22;11649;48.090;9.754;2022-09-27T04:54:52;9.10;99.90
22966;DHT22;11649;48.090;9.754;2022-09-27T04:57:19;8.90;99.90
22966;DHT22;11649;48.090;9.754;2022-09-27T04:59:46;9.10;99.90
22966;DHT22;11649;48.090;9.754;2022-09-27T05:02:13;9.20;99.90
22966;DHT22;11649;48.090;9.754;2022-09-27T05:04:39;9.10;99.90
22966;DHT22;11649;48.090;9.754;2022-09-27T05:07:06;9.20;99.90
22966;DHT22;11649;48.090;9.754;2022-09-27T05:09:33;9.20;99.90
22966;DHT22;11649;48.090;9.754;2022-09-27T05:12:00;9.00;99.90
22966;DHT22;11649;48.090;9.754;2022-09-27T05:14:27;9.30;99.90
22966;DHT22;11649;48.090;9.754;2022-09-27T05:16:54;9.20;99.90
22966;DHT22;11649;48.090;9.754;2022-09-27T05:19:21;9.30;99.90
22966;DHT22;11649;48.090;9.754;2022-09-27T05:21:47;9.30;99.90
22966;DHT22;11649;48.090;9.754;2022-09-27T05:24:14;9.20;99.90
22966;DHT22;11649;48.090;9.754;2022-09-27T05:26:41;9.30;99.90
22966;DHT22;11649;48.090;9.754;2022-09-27T05:29:08;9.20;99.90
22966;DHT22;11649;48.090;9.754;2022-09-27T05:31:35;9.30;99.90
22966;DHT22;11649;48.090;9.754;2022-09-27T05:34:02;9.30;99.90
22966;DHT22;11649;48.090;9.754;2022-09-27T05:36:29;9.30;99.90
22966;DHT22;11649;48.090;9.754;2022-09-27T05:38:56;9.30;99.90
22966;DHT22;11649;48.090;9.754;2022-09-27T05:41:22;9.30;99.90
22966;DHT22;11649;48.090;9.754;2022-09-27T05:43:49;9.20;99.90
22966;DHT22;11649;48.090;9.754;2022-09-27T05:46:16;9.30;99.90
22966;DHT22;11649;48.090;9.754;2022-09-27T05:48:43;9.30;99.90
22966;DHT22;11649;48.090;9.754;2022-09-27T05:51:10;9.30;99.90
22966;DHT22;11649;48.090;9.754;2022-09-27T05:53:37;9.30;99.90
22966;DHT22;11649;48.090;9.754;2022-09-27T05:56:04;9.40;99.90
22966;DHT22;11649;48.090;9.754;2022-09-27T05:58:31;9.30;99.90
22966;DHT22;11649;48.090;9.754;2022-09-27T06:00:58;9.30;99.90
22966;DHT22;11649;48.090;9.754;2022-09-27T06:03:25;9.40;99.90
22966;DHT22;11649;48.090;9.754;2022-09-27T06:05:51;9.30;99.90
22966;DHT22;11649;48.090;9.754;2022-09-27T06:08:18;9.30;99.90
22966;DHT22;11649;48.090;9.754;2022-09-27T06:10:47;9.10;99.90
22966;DHT22;11649;48.090;9.754;2022-09-27T06:13:15;9.30;99.90
22966;DHT22;11649;48.090;9.754;2022-09-27T06:15:43;9.20;99.90
22966;DHT22;11649;48.090;9.754;2022-09-27T06:18:13;9.20;99.90
22966;DHT22;11649;48.090;9.754;2022-09-27T06:20:41;9.20;99.90
22966;DHT22;11649;48.090;9.754;2022-09-27T06:23:13;9.00;99.90
22966;DHT22;11649;48.090;9.754;2022-09-27T06:25:40;9.10;99.90
22966;DHT22;11649;48.090;9.754;2022-09-27T06:28:07;9.10;99.90
22966;DHT22;11649;48.090;9.754;2022-09-27T06:30:38;9.00;99.90
22966;DHT22;11649;48.090;9.754;2022-09-27T06:33:08;9.00;99.90
22966;DHT22;11649;48.090;9.754;2022-09-27T06:35:35;9.00;99.90
22966;DHT22;11649;48.090;9.754;2022-09-27T06:38:06;8.80;99.90
22966;DHT22;11649;48.090;9.754;2022-09-27T06:40:35;8.80;99.90
22966;DHT22;11649;48.090;9.754;2022-09-27T06:43:04;8.80;99.90
22966;DHT22;11649;48.090;9.754;2022-09-27T06:45:31;8.70;99.90
22966;DHT22;11649;48.090;9.754;2022-09-27T06:47:58;8.70;99.90
22966;DHT22;11649;48.090;9.754;2022-09-27T06:50:29;8.40;99.90
22966;DHT22;11649;48.090;9.754;2022-09-27T06:52:58;8.60;99.90
22966;DHT22;11649;48.090;9.754;2022-09-27T06:55:25;8.40;99.90
22966;DHT22;11649;48.090;9.754;2022-09-27T06:57:56;8.60;99.90
22966;DHT22;11649;48.090;9.754;2022-09-27T07:00:42;8.60;99.90
22966;DHT22;11649;48.090;9.754;2022-09-27T07:03:09;8.60;99.90
22966;DHT22;11649;48.090;9.754;2022-09-27T07:05:37;8.40;99.90
22966;DHT22;11649;48.090;9.754;2022-09-27T07:08:04;8.50;99.90
22966;DHT22;11649;48.090;9.754;2022-09-27T07:10:34;8.40;99.90
22966;DHT22;11649;48.090;9.754;2022-09-27T07:13:07;8.40;99.90
22966;DHT22;11649;48.090;9.754;2022-09-27T07:15:35;8.60;99.90
22966;DHT22;11649;48.090;9.754;2022-09-27T07:18:03;8.70;99.90
22966;DHT22;11649;48.090;9.754;2022-09-27T07:20:31;9.00;99.90
22966;DHT22;11649;48.090;9.754;2022-09-27T07:22:58;8.70;99.90
22966;DHT22;11649;48.090;9.754;2022-09-27T07:25:25;8.70;99.90
22966;DHT22;11649;48.090;9.754;2022-09-27T07:27:52;8.60;99.90
22966;DHT22;11649;48.090;9.754;2022-09-27T07:30:19;8.70;99.90
22966;DHT22;11649;48.090;9.754;2022-09-27T07:32:47;8.70;99.90
22966;DHT22;11649;48.090;9.754;2022-09-27T07:35:13;8.80;99.90
22966;DHT22;11649;48.090;9.754;2022-09-27T07:37:41;8.60;99.90
22966;DHT22;11649;48.090;9.754;2022-09-27T07:40:09;8.90;99.90
22966;DHT22;11649;48.090;9.754;2022-09-27T07:42:36;9.00;99.90
22966;DHT22;11649;48.090;9.754;2022-09-27T07:45:10;9.20;99.90
22966;DHT22;11649;48.090;9.754;2022-09-27T07:47:38;9.10;99.90
22966;DHT22;11649;48.090;9.754;2022-09-27T07:50:07;9.20;99.90
22966;DHT22;11649;48.090;9.754;2022-09-27T07:52:39;9.50;99.90
22966;DHT22;11649;48.090;9.754;2022-09-27T07:55:11;9.30;99.90
22966;DHT22;11649;48.090;9.754;2022-09-27T07:57:39;9.50;99.90
22966;DHT22;11649;48.090;9.754;2022-09-27T08:00:10;9.30;99.90
22966;DHT22;11649;48.090;9.754;2022-09-27T08:02:37;9.50;99.90
22966;DHT22;11649;48.090;9.754;2022-09-27T08:05:04;9.40;99.90
22966;DHT22;11649;48.090;9.754;2022-09-27T08:07:31;9.50;99.90
22966;DHT22;11649;48.090;9.754;2022-09-27T08:09:58;9.50;99.90
22966;DHT22;11649;48.090;9.754;2022-09-27T08:12:25;9.50;99.90
22966;DHT22;11649;48.090;9.754;2022-09-27T08:14:52;9.30;99.90
22966;DHT22;11649;48.090;9.754;2022-09-27T08:17:19;9.20;99.90
22966;DHT22;11649;48.090;9.754;2022-09-27T08:19:45;9.40;99.90
22966;DHT22;11649;48.090;9.754;2022-09-27T08:22:15;9.20;99.90
22966;DHT22;11649;48.090;9.754;2022-09-27T08:24:42;9.60;99.90
22966;DHT22;11649;48.090;9.754;2022-09-27T08:27:08;9.60;99.90
22966;DHT22;11649;48.090;9.754;2022-09-27T08:29:38;9.70;99.90
22966;DHT22;11649;48.090;9.754;2022-09-27T08:32:10;9.50;99.90
22966;DHT22;11649;48.090;9.754;2022-09-27T08:34:38;9.60;99.90
22966;DHT22;11649;48.090;9.754;2022-09-27T08:37:05;10.10;99.90
22966;DHT22;11649;48.090;9.754;2022-09-27T08:39:31;9.90;99.90
22966;DHT22;11649;48.090;9.754;2022-09-27T08:47:42;9.90;99.90
22966;DHT22;11649;48.090;9.754;2022-09-27T08:50:29;9.90;99.90
22966;DHT22;11649;48.090;9.754;2022-09-27T08:53:25;9.90;99.90
22966;DHT22;11649;48.090;9.754;2022-09-27T08:55:54;9.90;99.90
22966;DHT22;11649;48.090;9.754;2022-09-27T08:58:25;9.90;99.90
22966;DHT22;11649;48.090;9.754;2022-09-27T09:00:54;9.80;99.90
22966;DHT22;11649;48.090;9.754;2022-09-27T09:03:24;9.80;99.90
22966;DHT22;11649;48.090;9.754;2022-09-27T09:06:24;10.00;99.90
22966;DHT22;11649;48.090;9.754;2022-09-27T09:14:43;10.00;99.90
22966;DHT22;11649;48.090;9.754;2022-09-27T09:20:17;10.10;99.90
22966;DHT22;11649;48.090;9.754;2022-09-27T09:23:12;10.10;99.90
22966;DHT22;11649;48.090;9.754;2022-09-27T09:28:38;10.20;99.90
22966;DHT22;11649;48.090;9.754;2022-09-27T09:34:27;10.10;99.90
22966;DHT22;11649;48.090;9.754;2022-09-27T09:36:56;9.90;99.90
22966;DHT22;11649;48.090;9.754;2022-09-27T09:39:42;10.10;99.90
22966;DHT22;11649;48.090;9.754;2022-09-27T09:42:44;10.10;99.90
22966;DHT22;11649;48.090;9.754;2022-09-27T09:45:27;10.20;99.90
22966;DHT22;11649;48.090;9.754;2022-09-27T09:50:44;10.40;99.90
22966;DHT22;11649;48.090;9.754;2022-09-27T09:53:16;10.30;99.90
22966;DHT22;11649;48.090;9.754;2022-09-27T09:55:54;10.30;99.90
22966;DHT22;11649;48.090;9.754;2022-09-27T09:58:27;10.20;99.90
22966;DHT22;11649;48.090;9.754;2022-09-27T10:01:13;10.30;99.90
22966;DHT22;11649;48.090;9.754;2022-09-27T10:03:40;10.10;99.90
22966;DHT22;11649;48.090;9.754;2022-09-27T10:06:09;9.90;99.90
22966;DHT22;11649;48.090;9.754;2022-09-27T10:08:36;9.70;99.90
22966;DHT22;11649;48.090;9.754;2022-09-27T10:11:03;9.50;99.90
22966;DHT22;11649;48.090;9.754;2022-09-27T10:13:32;9.30;99.90
22966;DHT22;11649;48.090;9.754;2022-09-27T10:16:08;9.10;99.90
22966;DHT22;11649;48.090;9.754;2022-09-27T10:18:36;9.20;99.90
22966;DHT22;11649;48.090;9.754;2022-09-27T10:21:21;9.30;99.90
22966;DHT22;11649;48.090;9.754;2022-09-27T10:24:11;9.30;99.90
22966;DHT22;11649;48.090;9.754;2022-09-27T10:26:45;9.40;99.90
22966;DHT22;11649;48.090;9.754;2022-09-27T10:29:15;9.50;99.90
22966;DHT22;11649;48.090;9.754;2022-09-27T10:31:43;9.60;99.90
22966;DHT22;11649;48.090;9.754;2022-09-27T10:34:26;9.70;99.90
22966;DHT22;11649;48.090;9.754;2022-09-27T10:39:39;9.80;99.90
22966;DHT22;11649;48.090;9.754;2022-09-27T10:42:30;9.80;99.90
22966;DHT22;11649;48.090;9.754;2022-09-27T10:47:44;9.90;99.90
22966;DHT22;11649;48.090;9.754;2022-09-27T10:50:26;9.80;99.90
22966;DHT22;11649;48.090;9.754;2022-09-27T10:53:15;9.80;99.90
22966;DHT22;11649;48.090;9.754;2022-09-27T10:55:47;9.90;99.90
22966;DHT22;11649;48.090;9.754;2022-09-27T10:58:31;9.90;99.90
22966;DHT22;11649;48.090;9.754;2022-09-27T11:01:06;9.90;99.90
22966;DHT22;11649;48.090;9.754;2022-09-27T11:03:45;9.70;99.90
22966;DHT22;11649;48.090;9.754;2022-09-27T11:06:33;9.90;99.90
22966;DHT22;11649;48.090;9.754;2022-09-27T11:09:17;10.10;99.90
22966;DHT22;11649;48.090;9.754;2022-09-27T11:11:44;10.20;99.90
22966;DHT22;11649;48.090;9.754;2022-09-27T11:14:20;10.40;99.90
22966;DHT22;11649;48.090;9.754;2022-09-27T11:20:15;10.60;99.90
22966;DHT22;11649;48.090;9.754;2022-09-27T11:25:59;10.70;99.90
22966;DHT22;11649;48.090;9.754;2022-09-27T11:31:19;10.90;99.90
22966;DHT22;11649;48.090;9.754;2022-09-27T11:34:27;11.10;99.90
22966;DHT22;11649;48.090;9.754;2022-09-27T11:39:44;11.50;99.90
22966;DHT22;11649;48.090;9.754;2022-09-27T11:42:36;11.50;99.90
22966;DHT22;11649;48.090;9.754;2022-09-27T11:45:17;11.40;99.90
22966;DHT22;11649;48.090;9.754;2022-09-27T11:56:42;11.70;99.90
22966;DHT22;11649;48.090;9.754;2022-09-27T12:02:34;11.50;99.90
22966;DHT22;11649;48.090;9.754;2022-09-27T12:07:46;11.80;99.90
22966;DHT22;11649;48.090;9.754;2022-09-27T12:10:18;11.80;99.90
22966;DHT22;11649;48.090;9.754;2022-09-27T12:12:51;11.70;99.90
22966;DHT22;11649;48.090;9.754;2022-09-27T12:15:25;11.80;99.90
22966;DHT22;11649;48.090;9.754;2022-09-27T12:18:42;11.90;99.90
22966;DHT22;11649;48.090;9.754;2022-09-27T12:20:51;12.00;99.90
22966;DHT22;11649;48.090;9.754;2022-09-27T12:23:46;12.10;99.90
22966;DHT22;11649;48.090;9.754;2022-09-27T12:26:22;12.10;99.90
22966;DHT22;11649;48.090;9.754;2022-09-27T12:29:12;11.90;99.90
22966;DHT22;11649;48.090;9.754;2022-09-27T12:31:46;11.90;99.90
22966;DHT22;11649;48.090;9.754;2022-09-27T12:37:14;12.30;99.90
22966;DHT22;11649;48.090;9.754;2022-09-27T12:39:52;12.20;99.90
22966;DHT22;11649;48.090;9.754;2022-09-27T12:45:04;12.20;99.90
22966;DHT22;11649;48.090;9.754;2022-09-27T12:50:35;11.90;99.90
22966;DHT22;11649;48.090;9.754;2022-09-27T12:56:16;11.90;99.90
22966;DHT22;11649;48.090;9.754;2022-09-27T13:12:36;11.80;99.90
22966;DHT22;11649;48.090;9.754;2022-09-27T13:15:29;11.80;99.90
22966;DHT22;11649;48.090;9.754;2022-09-27T13:17:58;11.80;99.90
22966;DHT22;11649;48.090;9.754;2022-09-27T13:22:58;11.40;99.90
22966;DHT22;11649;48.090;9.754;2022-09-27T13:26:03;11.40;99.90
22966;DHT22;11649;48.090;9.754;2022-09-27T13:31:15;11.30;99.90
22966;DHT22;11649;48.090;9.754;2022-09-27T13:33:46;11.10;99.90
22966;DHT22;11649;48.090;9.754;2022-09-27T13:41:56;11.20;99.90
22966;DHT22;11649;48.090;9.754;2022-09-27T13:44:41;11.20;99.90
22966;DHT22;11649;48.090;9.754;2022-09-27T13:47:29;11.10;99.90
22966;DHT22;11649;48.090;9.754;2022-09-27T13:50:22;11.20;99.90
22966;DHT22;11649;48.090;9.754;2022-09-27T13:53:04;10.90;99.90
22966;DHT22;11649;48.090;9.754;2022-09-27T13:55:49;10.60;99.90
22966;DHT22;11649;48.090;9.754;2022-09-27T14:01:21;10.40;99.90
22966;DHT22;11649;48.090;9.754;2022-09-27T14:03:58;10.00;99.90
22966;DHT22;11649;48.090;9.754;2022-09-27T14:06:34;10.00;99.90
22966;DHT22;11649;48.090;9.754;2022-09-27T14:09:12;10.30;99.90
22966;DHT22;11649;48.090;9.754;2022-09-27T14:11:42;10.70;99.90
22966;DHT22;11649;48.090;9.754;2022-09-27T14:14:19;10.90;99.90
22966;DHT22;11649;48.090;9.754;2022-09-27T14:16:48;11.30;99.90
22966;DHT22;11649;48.090;9.754;2022-09-27T14:19:18;11.20;99.90
22966;DHT22;11649;48.090;9.754;2022-09-27T14:21:46;11.20;99.90
22966;DHT22;11649;48.090;9.754;2022-09-27T14:24:32;11.10;99.90
22966;DHT22;11649;48.090;9.754;2022-09-27T14:29:47;10.80;99.90
22966;DHT22;11649;48.090;9.754;2022-09-27T14:32:28;10.70;99.90
22966;DHT22;11649;48.090;9.754;2022-09-27T14:35:16;10.70;99.90
22966;DHT22;11649;48.090;9.754;2022-09-27T14:38:04;10.60;99.90
22966;DHT22;11649;48.090;9.754;2022-09-27T14:43:20;10.50;99.90
22966;DHT22;11649;48.090;9.754;2022-09-27T14:45:48;10.50;99.90
22966;DHT22;11649;48.090;9.754;2022-09-27T14:50:57;10.10;99.90
22966;DHT22;11649;48.090;9.754;2022-09-27T14:53:43;10.10;99.90
22966;DHT22;11649;48.090;9.754;2022-09-27T14:56:18;10.10;99.90
22966;DHT22;11649;48.090;9.754;2022-09-27T14:58:55;10.30;99.90
22966;DHT22;11649;48.090;9.754;2022-09-27T15:01:28;10.30;99.90
22966;DHT22;11649;48.090;9.754;2022-09-27T15:04:06;10.30;99.90
22966;DHT22;11649;48.090;9.754;2022-09-27T15:06:35;10.30;99.90
22966;DHT22;11649;48.090;9.754;2022-09-27T15:09:04;10.30;99.90
22966;DHT22;11649;48.090;9.754;2022-09-27T15:11:31;10.30;99.90
22966;DHT22;11649;48.090;9.754;2022-09-27T15:14:01;10.10;99.90
22966;DHT22;11649;48.090;9.754;2022-09-27T15:16:30;10.00;99.90
22966;DHT22;11649;48.090;9.754;2022-09-27T15:22:40;9.90;99.90
22966;DHT22;11649;48.090;9.754;2022-09-27T15:25:19;9.90;99.90
22966;DHT22;11649;48.090;9.754;2022-09-27T15:27:52;10.00;99.90
22966;DHT22;11649;48.090;9.754;2022-09-27T15:30:40;9.80;99.90
22966;DHT22;11649;48.090;9.754;2022-09-27T15:33:34;9.80;99.90
22966;DHT22;11649;48.090;9.754;2022-09-27T15:36:04;9.80;99.90
22966;DHT22;11649;48.090;9.754;2022-09-27T15:38:32;9.80;99.90
22966;DHT22;11649;48.090;9.754;2022-09-27T15:43:31;9.60;99.90
22966;DHT22;11649;48.090;9.754;2022-09-27T15:46:01;9.60;99.90
22966;DHT22;11649;48.090;9.754;2022-09-27T15:48:34;9.80;99.90
22966;DHT22;11649;48.090;9.754;2022-09-27T15:51:39;9.60;99.90
22966;DHT22;11649;48.090;9.754;2022-09-27T15:54:05;9.70;99.90
22966;DHT22;11649;48.090;9.754;2022-09-27T15:56:32;9.60;99.90
22966;DHT22;11649;48.090;9.754;2022-09-27T15:59:00;9.40;99.90
22966;DHT22;11649;48.090;9.754;2022-09-27T16:01:32;9.60;99.90
22966;DHT22;11649;48.090;9.754;2022-09-27T16:03:59;9.70;99.90
22966;DHT22;11649;48.090;9.754;2022-09-27T16:06:27;9.70;99.90
22966;DHT22;11649;48.090;9.754;2022-09-27T16:08:54;9.50;99.90
22966;DHT22;11649;48.090;9.754;2022-09-27T16:11:21;9.50;99.90
22966;DHT22;11649;48.090;9.754;2022-09-27T16:13:47;9.60;99.90
22966;DHT22;11649;48.090;9.754;2022-09-27T16:16:17;9.40;99.90
22966;DHT22;11649;48.090;9.754;2022-09-27T16:18:45;9.40;99.90
22966;DHT22;11649;48.090;9.754;2022-09-27T16:21:13;9.50;99.90
22966;DHT22;11649;48.090;9.754;2022-09-27T16:23:40;9.40;99.90
22966;DHT22;11649;48.090;9.754;2022-09-27T16:26:06;9.20;99.90
22966;DHT22;11649;48.090;9.754;2022-09-27T16:28:33;9.30;99.90
22966;DHT22;11649;48.090;9.754;2022-09-27T16:31:06;9.40;99.90
22966;DHT22;11649;48.090;9.754;2022-09-27T16:33:35;9.60;99.90
22966;DHT22;11649;48.090;9.754;2022-09-27T16:36:07;9.50;99.90
22966;DHT22;11649;48.090;9.754;2022-09-27T16:38:41;9.70;99.90
22966;DHT22;11649;48.090;9.754;2022-09-27T16:41:08;9.50;99.90
22966;DHT22;11649;48.090;9.754;2022-09-27T16:43:35;9.60;99.90
22966;DHT22;11649;48.090;9.754;2022-09-27T16:46:04;9.40;99.90
22966;DHT22;11649;48.090;9.754;2022-09-27T16:48:32;9.60;99.90
22966;DHT22;11649;48.090;9.754;2022-09-27T16:51:19;9.50;99.90
22966;DHT22;11649;48.090;9.754;2022-09-27T16:54:06;9.50;99.90
22966;DHT22;11649;48.090;9.754;2022-09-27T16:56:34;9.40;99.90
22966;DHT22;11649;48.090;9.754;2022-09-27T16:59:02;9.20;99.90
22966;DHT22;11649;48.090;9.754;2022-09-27T17:01:30;9.50;99.90
22966;DHT22;11649;48.090;9.754;2022-09-27T17:03:57;9.40;99.90
22966;DHT22;11649;48.090;9.754;2022-09-27T17:06:26;9.50;99.90
22966;DHT22;11649;48.090;9.754;2022-09-27T17:08:54;9.50;99.90
22966;DHT22;11649;48.090;9.754;2022-09-27T17:11:21;9.40;99.90
22966;DHT22;11649;48.090;9.754;2022-09-27T17:13:53;9.30;99.90
22966;DHT22;11649;48.090;9.754;2022-09-27T17:16:21;9.30;99.90
22966;DHT22;11649;48.090;9.754;2022-09-27T17:18:48;9.00;99.90
22966;DHT22;11649;48.090;9.754;2022-09-27T17:21:15;9.20;99.90
22966;DHT22;11649;48.090;9.754;2022-09-27T17:23:42;9.20;99.90
22966;DHT22;11649;48.090;9.754;2022-09-27T17:26:20;9.10;99.90
22966;DHT22;11649;48.090;9.754;2022-09-27T17:28:48;10.40;99.90
22966;DHT22;11649;48.090;9.754;2022-09-27T17:31:17;9.20;99.90
22966;DHT22;11649;48.090;9.754;2022-09-27T17:33:48;9.20;99.90
22966;DHT22;11649;48.090;9.754;2022-09-27T17:36:25;9.20;99.90
22966;DHT22;11649;48.090;9.754;2022-09-27T17:38:52;9.20;99.90
22966;DHT22;11649;48.090;9.754;2022-09-27T17:41:21;9.20;99.90
22966;DHT22;11649;48.090;9.754;2022-09-27T17:43:53;9.20;99.90
22966;DHT22;11649;48.090;9.754;2022-09-27T17:46:22;9.20;99.90
22966;DHT22;11649;48.090;9.754;2022-09-27T17:48:49;9.20;99.90
22966;DHT22;11649;48.090;9.754;2022-09-27T17:51:37;9.20;99.90
22966;DHT22;11649;48.090;9.754;2022-09-27T17:54:06;9.30;99.90
22966;DHT22;11649;48.090;9.754;2022-09-27T17:56:38;9.30;99.90
22966;DHT22;11649;48.090;9.754;2022-09-27T17:59:06;9.40;99.90
22966;DHT22;11649;48.090;9.754;2022-09-27T18:01:33;9.10;99.90
22966;DHT22;11649;48.090;9.754;2022-09-27T18:04:00;9.30;99.90
22966;DHT22;11649;48.090;9.754;2022-09-27T18:06:28;9.40;99.90
22966;DHT22;11649;48.090;9.754;2022-09-27T18:08:55;9.30;99.90
22966;DHT22;11649;48.090;9.754;2022-09-27T18:11:25;9.30;99.90
22966;DHT22;11649;48.090;9.754;2022-09-27T18:13:56;9.30;99.90
22966;DHT22;11649;48.090;9.754;2022-09-27T18:16:27;9.20;99.90
22966;DHT22;11649;48.090;9.754;2022-09-27T18:19:03;9.10;99.90
22966;DHT22;11649;48.090;9.754;2022-09-27T18:21:30;9.20;99.90
22966;DHT22;11649;48.090;9.754;2022-09-27T18:23:59;9.30;99.90
22966;DHT22;11649;48.090;9.754;2022-09-27T18:26:27;9.20;99.90
22966;DHT22;11649;48.090;9.754;2022-09-27T18:28:59;9.20;99.90
22966;DHT22;11649;48.090;9.754;2022-09-27T18:31:27;9.10;99.90
22966;DHT22;11649;48.090;9.754;2022-09-27T18:33:53;9.20;99.90
22966;DHT22;11649;48.090;9.754;2022-09-27T18:36:25;9.30;99.90
22966;DHT22;11649;48.090;9.754;2022-09-27T18:38:57;9.20;99.90
22966;DHT22;11649;48.090;9.754;2022-09-27T18:41:26;9.30;99.90
22966;DHT22;11649;48.090;9.754;2022-09-27T18:44:01;9.30;99.90
22966;DHT22;11649;48.090;9.754;2022-09-27T18:46:30;9.30;99.90
22966;DHT22;11649;48.090;9.754;2022-09-27T18:49:08;9.10;99.90
22966;DHT22;11649;48.090;9.754;2022-09-27T18:51:36;9.20;99.90
22966;DHT22;11649;48.090;9.754;2022-09-27T18:54:08;9.20;99.90